AirNav   Pilot Hours Calculator
 
 449 users online  

CO58 Wings N Things Airpark & Museum Airport
Firestone, Colorado, USA

GOING TO FIRESTONE?


FAA INFORMATION EFFECTIVE 22 APRIL 2021

Location

FAA Identifier: CO58
Lat/Long: 40-06-20.9420N 104-57-16.9200W
40-06.349033N 104-57.282000W
40.1058172,-104.9547000
(estimated)
Elevation: 5000 ft. / 1524 m (estimated)
Variation: 11E (1985)
From city: 1 mile W of FIRESTONE, CO
Time zone: UTC -6 (UTC -7 during Standard Time)
Zip code: 80504

Airport Operations

Airport use: Private use. Permission required prior to landing
Control tower: no
ARTCC: DENVER CENTER
FSS: DENVER FLIGHT SERVICE STATION
Attendance: UNATNDD
Wind indicator: no
Segmented circle: no

Airport Communications

WX AWOS-3 at EIK (7 nm SW): 133.825 (303-604-4339)
WX AWOS-3 at LMO (10 nm W): 120.0 (303-684-7545)
WX AWOS-3 at BDU (13 nm W): 118.825 (303-541-9540)
WX AWOS-3 at BJC (14 nm SW): PHONE 720-887-8067
WX ASOS at DEN (20 nm SE): PHONE 303-342-1920

Nearby radio navigation aids

VOR radial/distance  VOR name  Freq  Var
BJCr025/14.3JEFFCO VOR/DME115.4011E
DVVr302/19.8MILE HIGH VORTAC114.7008E
DENr314/22.2DENVER VOR/DME117.9008E
FQFr317/29.3FALCON VORTAC116.3011E
GLLr205/30.1GILL VOR/DME114.2013E

Airport Services

Runway Information

Runway 18/36

Dimensions: 2800 x 50 ft. / 853 x 15 m
Surface: dirt
RUNWAY 18  RUNWAY 36
Traffic pattern: leftleft
Obstructions: 5 ft. fence5 ft. fence

Airport Ownership and Management from official FAA records

Ownership: Privately-owned
Owner: SHARON MC DONALD
P.O. BOX 646
FREDERICK, CO 80530
Manager: SHARON MC DONALD
5129 WELD CTY RD 16
LONGMONT, CO 80504

Airport Operational Statistics

Aircraft based on the field: 2
Single engine airplanes: 2
    

Additional Remarks

FOR CD CTC DENVER APCH AT 303-342-1916.

Instrument Procedures

There are no published instrument procedures at CO58.

Some nearby airports with instrument procedures:

KEIK - Erie Municipal Airport (7 nm SW)
KLMO - Vance Brand Airport (10 nm W)
KBJC - Rocky Mountain Metro Airport (14 nm SW)
KDEN - Denver International Airport (20 nm SE)
KFNL - Northern Colorado Regional Airport (21 nm N)
 
Loc | Ops | Rwys | IFR | FBO | Links
Com | Nav | Svcs | Stats | Notes

AirBoss

 
Area around CO58 (Wings N Things Airpark & Museum Airport)
 
Road maps at: MapQuest Bing Google
 
Aerial photo
No photo
 
Sectional chart

 
Airport distance calculator
Flying to Wings N Things Airpark & Museum Airport? Find the distance to fly.

From to CO58

Sunrise and sunset
Times for 12-May-2021
 Local
(UTC-6)
 Zulu
(UTC)
Morning civil twilight05:1811:18
Sunrise05:4811:48
Sunset20:0402:04
Evening civil twilight20:3502:35

Current date and time
Zulu (UTC)  12-May-2021 06:43:53
Local (UTC-6)  12-May-2021 00:43:53
 
METAR
KEIK 
7nm SW 
120615Z AUTO 00000KT 10SM SCT017 OVC029 05/04 A3030 RMK AO2 T00460035 PWINO
KLMO 
10nm W 
120615Z AUTO 00000KT 10SM BKN023 OVC031 05/03 A3032 RMK AO2 T00520033
K1V5 
13nm W 
AWOS 118.825 303-541-9540
No observation available
KBDU 
13nm W 
120615Z AUTO 02003KT 10SM BKN019 OVC024 04/03 A3029 RMK AO2
KBJC 
14nm SW 
120615Z AUTO 02004KT 10SM OVC031 04/03 A3029 RMK AO2
TAF
KBJC 
14nm SW 
120525Z 1206/1306 VRB04KT P6SM SCT010 OVC030 FM120700 VRB05KT P6SM VCFG FEW010 SCT020 TEMPO 1210/1214 1SM BR BKN004 FM121400 VRB05KT P6SM FEW020 FM121900 07007KT P6SM SCT070 FM130200 VRB05KT P6SM SCT070
NOTAMs
Click for the latest NOTAMs
NOTAMs are issued by the DoD/FAA and will open in a separate window not controlled by AirNav.

 

 
 

Would you like to see your business listed on this page?

 If your business provides an interesting product or service to pilots, flight crews, aircraft, or users of the Wings N Things Airpark & Museum Airport, you should consider listing it here.  To start the listing process, click on the button below
 
Add a business
 

Other Pages about Wings N Things Airpark & Museum Airport

Update a link
 
Copyright © AirNav, LLC. All rights reserved. Privacy Policy  Contact